createdAt,value
2023-01-10T00:01:30.223Z,17.80
2023-01-10T00:03:57.996Z,17.80
2023-01-10T00:06:25.802Z,17.80
2023-01-10T00:08:53.539Z,17.80
2023-01-10T00:11:40.358Z,17.80
2023-01-10T00:14:08.125Z,17.80
2023-01-10T00:16:39.226Z,17.80
2023-01-10T00:19:08.302Z,17.80
2023-01-10T00:21:36.064Z,17.80
2023-01-10T00:24:17.479Z,17.80
2023-01-10T00:26:50.977Z,17.80
2023-01-10T00:29:19.892Z,17.80
2023-01-10T00:31:47.914Z,17.80
2023-01-10T00:34:16.355Z,17.80
2023-01-10T00:36:45.577Z,17.80
2023-01-10T00:39:13.882Z,17.70
2023-01-10T00:41:59.871Z,17.80
2023-01-10T00:44:28.977Z,17.80
2023-01-10T00:46:56.867Z,17.80
2023-01-10T00:49:24.737Z,17.80
2023-01-10T00:51:52.996Z,17.80
2023-01-10T00:54:20.727Z,17.70
2023-01-10T00:56:48.487Z,17.80
2023-01-10T00:59:16.231Z,17.80
2023-01-10T01:01:45.390Z,17.80
2023-01-10T01:04:13.245Z,17.80
2023-01-10T01:06:41.201Z,17.80
2023-01-10T01:09:08.944Z,17.70
2023-01-10T01:11:36.710Z,17.70
2023-01-10T01:14:04.451Z,17.80
2023-01-10T01:16:32.256Z,17.70
2023-01-10T01:19:01.495Z,17.80
2023-01-10T01:21:29.443Z,17.70
2023-01-10T01:23:57.647Z,17.80
2023-01-10T01:26:25.805Z,17.70
2023-01-10T01:28:53.647Z,17.80
2023-01-10T01:31:21.539Z,17.80
2023-01-10T01:33:49.494Z,17.80
2023-01-10T01:36:18.590Z,17.70
2023-01-10T01:38:46.416Z,17.80
2023-01-10T01:41:31.567Z,17.70
2023-01-10T01:44:03.073Z,17.80
2023-01-10T01:46:31.294Z,17.70
2023-01-10T01:48:59.714Z,17.80
2023-01-10T01:51:31.216Z,17.70
2023-01-10T01:54:03.558Z,17.80
2023-01-10T01:56:35.661Z,17.70
2023-01-10T01:59:07.638Z,17.70
2023-01-10T02:01:39.262Z,17.70
2023-01-10T02:04:12.495Z,17.70
2023-01-10T02:06:42.522Z,17.70
2023-01-10T02:09:16.988Z,17.80
2023-01-10T02:11:45.233Z,17.70
2023-01-10T02:14:14.883Z,17.70
2023-01-10T02:16:42.805Z,17.80
2023-01-10T02:19:19.565Z,17.70
2023-01-10T02:22:10.581Z,17.70
2023-01-10T02:25:04.226Z,17.70
2023-01-10T02:27:44.142Z,17.70
2023-01-10T02:30:37.775Z,17.70
2023-01-10T02:33:15.247Z,17.70
2023-01-10T02:35:56.597Z,17.70
2023-01-10T02:38:36.406Z,17.70
2023-01-10T02:41:12.212Z,17.70
2023-01-10T02:43:45.784Z,17.70
2023-01-10T02:46:18.026Z,17.70
2023-01-10T02:48:47.255Z,17.70
2023-01-10T02:51:20.272Z,17.70
2023-01-10T02:53:51.445Z,17.70
2023-01-10T02:56:55.883Z,17.70
2023-01-10T03:00:00.256Z,17.70
2023-01-10T03:02:43.466Z,17.70
2023-01-10T03:05:22.300Z,17.70
2023-01-10T03:07:56.135Z,17.70
2023-01-10T03:10:30.014Z,17.70
2023-01-10T03:13:03.437Z,17.70
2023-01-10T03:15:34.966Z,17.70
2023-01-10T03:18:07.151Z,17.70
2023-01-10T03:20:40.332Z,17.70
2023-01-10T03:23:08.169Z,17.70
2023-01-10T03:25:39.569Z,17.70
2023-01-10T03:28:11.703Z,17.70
2023-01-10T03:30:45.722Z,17.70
2023-01-10T03:33:16.685Z,17.70
2023-01-10T03:35:57.494Z,17.70
2023-01-10T03:38:32.523Z,17.60
2023-01-10T03:41:06.036Z,17.60
2023-01-10T03:43:58.779Z,17.70
2023-01-10T03:46:31.862Z,17.70
2023-01-10T03:49:01.217Z,17.60
2023-01-10T03:51:31.097Z,17.60
2023-01-10T03:54:01.365Z,17.70
2023-01-10T03:56:29.356Z,17.70
2023-01-10T03:58:57.505Z,17.60
2023-01-10T04:01:25.413Z,17.60
2023-01-10T04:03:53.319Z,17.70
2023-01-10T04:06:21.894Z,17.70
2023-01-10T04:08:51.062Z,17.60
2023-01-10T04:11:18.876Z,17.60
2023-01-10T04:13:46.688Z,17.70
2023-01-10T04:16:14.530Z,17.60
2023-01-10T04:18:42.345Z,17.60
2023-01-10T04:21:10.169Z,17.60
2023-01-10T04:23:38.097Z,17.50
2023-01-10T04:26:07.327Z,17.50
2023-01-10T04:28:35.204Z,17.50
2023-01-10T04:31:03.043Z,17.40
2023-01-10T04:33:30.880Z,17.40
2023-01-10T04:35:58.702Z,17.40
2023-01-10T04:38:26.590Z,17.40
2023-01-10T04:40:54.989Z,17.40
2023-01-10T04:43:24.524Z,17.40
2023-01-10T04:45:52.611Z,17.40
2023-01-10T04:48:20.834Z,17.40
2023-01-10T04:50:52.105Z,17.30
2023-01-10T04:53:20.644Z,17.40
2023-01-10T04:55:48.735Z,17.30
2023-01-10T04:58:16.727Z,17.40
2023-01-10T05:00:45.913Z,17.40
2023-01-10T05:03:13.792Z,17.30
2023-01-10T05:05:41.673Z,17.30
2023-01-10T05:08:09.533Z,17.30
2023-01-10T05:10:37.352Z,17.20
2023-01-10T05:13:05.568Z,17.30
2023-01-10T05:15:33.464Z,17.30
2023-01-10T05:18:02.785Z,17.30
2023-01-10T05:20:30.660Z,17.30
2023-01-10T05:22:58.517Z,17.30
2023-01-10T05:25:26.345Z,17.30
2023-01-10T05:27:55.062Z,17.30
2023-01-10T05:30:22.965Z,17.30
2023-01-10T05:32:50.812Z,17.30
2023-01-10T05:35:20.023Z,17.30
2023-01-10T05:37:47.874Z,17.30
2023-01-10T05:40:15.823Z,17.30
2023-01-10T05:42:43.880Z,17.20
2023-01-10T05:45:12.566Z,17.20
2023-01-10T05:47:40.378Z,17.20
2023-01-10T05:50:09.078Z,17.20
2023-01-10T05:52:38.299Z,17.20
2023-01-10T05:55:06.823Z,17.20
2023-01-10T05:57:34.635Z,17.20
2023-01-10T06:00:04.916Z,17.20
2023-01-10T06:02:39.467Z,17.10
2023-01-10T06:05:08.056Z,17.20
2023-01-10T06:07:35.893Z,17.10
2023-01-10T06:10:05.760Z,17.20
2023-01-10T06:12:33.635Z,17.20
2023-01-10T06:15:03.218Z,17.20
2023-01-10T06:17:31.045Z,17.20
2023-01-10T06:19:58.871Z,17.20
2023-01-10T06:22:27.880Z,17.20
2023-01-10T06:24:56.070Z,17.20
2023-01-10T06:27:25.240Z,17.20
2023-01-10T06:29:53.059Z,17.20
2023-01-10T06:32:20.862Z,17.20
2023-01-10T06:34:48.685Z,17.20
2023-01-10T06:37:18.716Z,17.20
2023-01-10T06:39:47.881Z,17.20
2023-01-10T06:42:15.772Z,17.20
2023-01-10T06:44:44.922Z,17.20
2023-01-10T06:47:12.830Z,17.20
2023-01-10T06:49:40.632Z,17.20
2023-01-10T06:52:08.520Z,17.20
2023-01-10T06:54:36.343Z,17.20
2023-01-10T06:57:04.728Z,17.20
2023-01-10T06:59:32.661Z,17.20
2023-01-10T07:02:02.033Z,17.20
2023-01-10T07:04:29.967Z,17.10
2023-01-10T07:06:57.786Z,17.10
2023-01-10T07:09:25.614Z,17.10
2023-01-10T07:11:53.444Z,17.20
2023-01-10T07:14:21.431Z,17.10
2023-01-10T07:16:49.386Z,17.10
2023-01-10T07:19:19.894Z,17.10
2023-01-10T07:21:47.767Z,17.20
2023-01-10T07:24:15.605Z,17.20
2023-01-10T07:26:43.642Z,17.30
2023-01-10T07:29:11.509Z,17.20
2023-01-10T07:31:39.412Z,17.30
2023-01-10T07:34:07.249Z,17.30
2023-01-10T07:36:39.311Z,17.30
2023-01-10T07:39:07.387Z,17.40
2023-01-10T07:41:35.233Z,17.30
2023-01-10T07:44:04.237Z,17.40
2023-01-10T07:46:32.189Z,17.40
2023-01-10T07:49:00.019Z,17.40
2023-01-10T07:51:27.848Z,17.40
2023-01-10T07:53:57.048Z,17.40
2023-01-10T07:56:25.204Z,17.40
2023-01-10T07:58:53.051Z,17.40
2023-01-10T08:01:20.955Z,17.40
2023-01-10T08:03:48.832Z,17.40
2023-01-10T08:06:16.958Z,17.40
2023-01-10T08:08:44.773Z,17.40
2023-01-10T08:11:14.127Z,17.40
2023-01-10T08:13:41.999Z,17.40
2023-01-10T08:16:10.145Z,17.40
2023-01-10T08:18:39.043Z,17.40
2023-01-10T08:21:07.095Z,17.40
2023-01-10T08:23:35.023Z,17.50
2023-01-10T08:26:03.366Z,17.40
2023-01-10T08:28:32.671Z,17.40
2023-01-10T08:31:05.336Z,17.50
2023-01-10T08:33:33.240Z,17.50
2023-01-10T08:36:01.065Z,17.50
2023-01-10T08:38:29.252Z,17.50
2023-01-10T08:40:58.079Z,17.50
2023-01-10T08:43:26.364Z,17.50
2023-01-10T08:45:55.537Z,17.50
2023-01-10T08:48:23.565Z,17.50
2023-01-10T08:50:51.370Z,17.60
2023-01-10T08:53:19.179Z,17.50
2023-01-10T08:55:47.001Z,17.40
2023-01-10T08:58:15.248Z,17.40
2023-01-10T09:00:44.928Z,17.40
2023-01-10T09:03:14.264Z,17.50
2023-01-10T09:05:42.198Z,17.50
2023-01-10T09:08:12.718Z,17.50
2023-01-10T09:10:41.553Z,17.50
2023-01-10T09:13:09.631Z,17.50
2023-01-10T09:15:39.256Z,17.60
2023-01-10T09:18:08.767Z,17.60
2023-01-10T09:20:41.234Z,17.60
2023-01-10T09:23:10.455Z,17.60
2023-01-10T09:25:38.569Z,17.60
2023-01-10T09:28:07.329Z,17.60
2023-01-10T09:30:36.212Z,17.70
2023-01-10T09:33:04.805Z,17.70
2023-01-10T09:35:33.170Z,17.70
2023-01-10T09:38:03.466Z,17.70
2023-01-10T09:40:41.265Z,17.70
2023-01-10T09:43:17.444Z,17.80
2023-01-10T09:45:54.591Z,17.70
2023-01-10T09:48:27.790Z,17.70
2023-01-10T09:51:11.488Z,17.70
2023-01-10T09:53:44.350Z,17.70
2023-01-10T09:56:15.423Z,17.80
2023-01-10T09:58:44.693Z,17.70
2023-01-10T10:01:17.089Z,17.70
2023-01-10T10:03:51.574Z,17.80
2023-01-10T10:06:19.966Z,17.80
2023-01-10T10:08:49.431Z,17.80
2023-01-10T10:11:42.758Z,17.70
2023-01-10T10:14:21.907Z,17.80
2023-01-10T10:17:04.630Z,17.80
2023-01-10T10:19:52.639Z,17.90
2023-01-10T10:22:29.964Z,17.80
2023-01-10T10:25:09.775Z,17.80
2023-01-10T10:27:46.300Z,17.90
2023-01-10T10:30:27.509Z,17.90
2023-01-10T10:33:06.773Z,18.00
2023-01-10T10:35:39.122Z,18.00
2023-01-10T10:38:12.995Z,17.90
2023-01-10T10:40:45.190Z,17.90
2023-01-10T10:43:19.802Z,17.90
2023-01-10T10:45:51.759Z,17.90
2023-01-10T10:48:24.806Z,17.90
2023-01-10T10:51:01.440Z,17.90
2023-01-10T10:53:31.912Z,17.90
2023-01-10T10:56:02.909Z,18.00
2023-01-10T10:58:32.128Z,18.00
2023-01-10T11:01:00.691Z,18.00
2023-01-10T11:03:39.361Z,18.00
2023-01-10T11:06:09.902Z,18.00
2023-01-10T11:08:41.406Z,18.00
2023-01-10T11:11:18.886Z,17.90
2023-01-10T11:13:49.725Z,17.90
2023-01-10T11:16:32.488Z,17.80
2023-01-10T11:19:15.506Z,17.70
2023-01-10T11:21:48.650Z,17.70
2023-01-10T11:24:23.825Z,17.80
2023-01-10T11:26:53.241Z,17.80
2023-01-10T11:29:25.702Z,17.80
2023-01-10T11:31:55.910Z,17.90
2023-01-10T11:34:29.587Z,17.90
2023-01-10T11:37:00.417Z,18.00
2023-01-10T11:39:29.992Z,17.90
2023-01-10T11:42:19.237Z,17.90
2023-01-10T11:44:47.179Z,17.80
2023-01-10T11:47:17.750Z,17.80
2023-01-10T11:49:45.738Z,17.80
2023-01-10T11:52:21.068Z,17.80
2023-01-10T11:54:49.304Z,17.90
2023-01-10T11:57:20.876Z,17.90
2023-01-10T11:59:53.991Z,17.80
2023-01-10T12:02:25.116Z,17.80
2023-01-10T12:04:55.538Z,17.80
2023-01-10T12:07:23.603Z,17.90
2023-01-10T12:09:58.005Z,17.90
2023-01-10T12:12:28.996Z,17.90
2023-01-10T12:14:59.138Z,17.80
2023-01-10T12:17:29.583Z,17.90
2023-01-10T12:20:01.292Z,17.90
2023-01-10T12:22:32.901Z,17.90
2023-01-10T12:25:03.371Z,17.90
2023-01-10T12:27:34.123Z,17.90
2023-01-10T12:30:06.553Z,17.90
2023-01-10T12:32:40.297Z,17.90
2023-01-10T12:35:14.475Z,17.90
2023-01-10T12:37:49.295Z,17.90
2023-01-10T12:40:24.552Z,17.90
2023-01-10T12:43:17.042Z,17.80
2023-01-10T12:45:51.462Z,17.80
2023-01-10T12:48:26.124Z,17.90
2023-01-10T12:50:59.823Z,17.90
2023-01-10T12:53:32.600Z,17.90
2023-01-10T12:56:05.805Z,17.80
2023-01-10T12:58:43.961Z,17.90
2023-01-10T13:01:16.268Z,17.80
2023-01-10T13:03:45.724Z,17.80
2023-01-10T13:06:22.813Z,17.80
2023-01-10T13:08:51.800Z,17.80
2023-01-10T13:11:22.800Z,17.80
2023-01-10T13:13:57.341Z,17.80
2023-01-10T13:16:33.946Z,17.80
2023-01-10T13:19:04.855Z,17.80
2023-01-10T13:21:34.358Z,17.80
2023-01-10T13:24:04.890Z,17.80
2023-01-10T13:26:52.895Z,17.80
2023-01-10T13:29:24.602Z,17.70
2023-01-10T13:31:57.310Z,17.80
2023-01-10T13:34:28.237Z,17.80
2023-01-10T13:36:59.139Z,17.70
2023-01-10T13:39:32.943Z,17.70
2023-01-10T13:42:43.198Z,17.70
2023-01-10T13:45:24.213Z,17.70
2023-01-10T13:48:06.423Z,17.80
2023-01-10T13:50:57.841Z,17.70
2023-01-10T13:53:51.694Z,17.80
2023-01-10T13:56:40.618Z,17.70
2023-01-10T13:59:31.980Z,17.70
2023-01-10T14:02:20.622Z,17.70
2023-01-10T14:04:51.835Z,17.70
2023-01-10T14:07:24.838Z,17.70
2023-01-10T14:09:54.085Z,17.70
2023-01-10T14:12:27.455Z,17.70
2023-01-10T14:15:01.858Z,17.60
2023-01-10T14:17:32.838Z,17.70
2023-01-10T14:20:05.200Z,17.70
2023-01-10T14:22:35.616Z,17.70
2023-01-10T14:25:05.914Z,17.60
2023-01-10T14:27:43.645Z,17.70
2023-01-10T14:30:18.107Z,17.70
2023-01-10T14:32:51.918Z,17.60
2023-01-10T14:35:23.527Z,17.60
2023-01-10T14:37:55.714Z,17.60
2023-01-10T14:40:28.201Z,17.70
2023-01-10T14:42:59.926Z,17.70
2023-01-10T14:45:37.155Z,17.70
2023-01-10T14:48:29.225Z,17.60
2023-01-10T14:51:11.182Z,17.70
2023-01-10T14:53:39.051Z,17.60
2023-01-10T14:56:19.991Z,17.60
2023-01-10T14:58:47.819Z,17.60
2023-01-10T15:01:22.448Z,17.50
2023-01-10T15:03:52.945Z,17.60
2023-01-10T15:06:21.030Z,17.50
2023-01-10T15:08:57.249Z,17.50
2023-01-10T15:11:27.541Z,17.50
2023-01-10T15:14:00.413Z,17.50
2023-01-10T15:16:29.782Z,17.50
2023-01-10T15:18:59.206Z,17.40
2023-01-10T15:21:27.206Z,17.50
2023-01-10T15:23:55.054Z,17.50
2023-01-10T15:26:29.165Z,17.50
2023-01-10T15:29:12.940Z,17.50
2023-01-10T15:31:42.407Z,17.40
2023-01-10T15:34:16.888Z,17.50
2023-01-10T15:36:49.251Z,17.40
2023-01-10T15:39:22.341Z,17.40
2023-01-10T15:41:51.245Z,17.50
2023-01-10T15:44:36.048Z,17.40
2023-01-10T15:47:03.978Z,17.40
2023-01-10T15:49:33.300Z,17.50
2023-01-10T15:52:01.412Z,17.40
2023-01-10T15:54:31.530Z,17.40
2023-01-10T15:57:07.486Z,17.40
2023-01-10T15:59:39.053Z,17.40
2023-01-10T16:02:30.639Z,17.40
2023-01-10T16:05:07.065Z,17.40
2023-01-10T16:07:36.816Z,17.30
2023-01-10T16:10:07.116Z,17.40
2023-01-10T16:12:54.729Z,17.40
2023-01-10T16:15:24.824Z,17.40
2023-01-10T16:17:53.373Z,17.40
2023-01-10T16:20:27.545Z,17.40
2023-01-10T16:22:56.406Z,17.40
2023-01-10T16:25:29.974Z,17.40
2023-01-10T16:27:58.492Z,17.40
2023-01-10T16:30:28.423Z,17.40
2023-01-10T16:32:57.368Z,17.40
2023-01-10T16:35:27.101Z,17.40
2023-01-10T16:37:56.555Z,17.50
2023-01-10T16:40:27.778Z,17.50
2023-01-10T16:43:13.455Z,17.40
2023-01-10T16:45:41.354Z,17.50
2023-01-10T16:48:09.515Z,17.50
2023-01-10T16:50:38.749Z,17.50
2023-01-10T16:53:07.008Z,17.50
2023-01-10T16:55:40.840Z,17.50
2023-01-10T16:58:09.670Z,17.50
2023-01-10T17:00:38.381Z,17.50
2023-01-10T17:03:10.122Z,17.50
2023-01-10T17:05:40.401Z,17.50
2023-01-10T17:08:14.987Z,17.50
2023-01-10T17:10:43.093Z,17.50
2023-01-10T17:13:11.919Z,17.50
2023-01-10T17:15:39.870Z,17.50
2023-01-10T17:18:07.769Z,17.50
2023-01-10T17:20:35.670Z,17.50
2023-01-10T17:23:04.857Z,17.60
2023-01-10T17:25:32.709Z,17.50
2023-01-10T17:28:00.571Z,17.50
2023-01-10T17:30:28.384Z,17.50
2023-01-10T17:32:57.415Z,17.50
2023-01-10T17:35:27.457Z,17.50
2023-01-10T17:37:56.619Z,17.50
2023-01-10T17:40:25.903Z,17.60
2023-01-10T17:42:53.739Z,17.50
2023-01-10T17:45:21.560Z,17.50
2023-01-10T17:47:51.770Z,17.60
2023-01-10T17:50:19.861Z,17.50
2023-01-10T17:52:47.693Z,17.50
2023-01-10T17:55:15.699Z,17.50
2023-01-10T17:57:44.928Z,17.60
2023-01-10T18:00:13.880Z,17.60
2023-01-10T18:02:41.856Z,17.50
2023-01-10T18:05:10.146Z,17.50
2023-01-10T18:07:38.095Z,17.50
2023-01-10T18:10:08.620Z,17.50
2023-01-10T18:12:36.684Z,17.50
2023-01-10T18:15:07.050Z,17.50
2023-01-10T18:17:36.236Z,17.50
2023-01-10T18:20:04.755Z,17.50
2023-01-10T18:22:50.281Z,17.50
2023-01-10T18:25:18.215Z,17.50
2023-01-10T18:27:50.191Z,17.50
2023-01-10T18:30:22.189Z,17.50
2023-01-10T18:32:50.083Z,17.50
2023-01-10T18:35:18.116Z,17.50
2023-01-10T18:37:46.190Z,17.50
2023-01-10T18:40:14.236Z,17.50
2023-01-10T18:42:42.105Z,17.50
2023-01-10T18:45:10.568Z,17.50
2023-01-10T18:47:39.802Z,17.50
2023-01-10T18:50:08.136Z,17.50
2023-01-10T18:52:35.965Z,17.50
2023-01-10T18:55:03.917Z,17.50
2023-01-10T18:57:33.049Z,17.60
2023-01-10T19:00:00.859Z,17.50
2023-01-10T19:02:28.963Z,17.50
2023-01-10T19:04:58.171Z,17.50
2023-01-10T19:07:26.080Z,17.50
2023-01-10T19:09:53.943Z,17.50
2023-01-10T19:12:21.775Z,17.50
2023-01-10T19:14:49.844Z,17.50
2023-01-10T19:17:18.196Z,17.40
2023-01-10T19:19:46.023Z,17.50
2023-01-10T19:22:15.271Z,17.40
2023-01-10T19:24:43.285Z,17.50
2023-01-10T19:27:11.374Z,17.40
2023-01-10T19:29:39.249Z,17.40
2023-01-10T19:32:07.230Z,17.50
2023-01-10T19:34:35.032Z,17.50
2023-01-10T19:37:02.902Z,17.50
2023-01-10T19:39:32.089Z,17.50
2023-01-10T19:41:59.937Z,17.40
2023-01-10T19:44:27.780Z,17.40
2023-01-10T19:46:55.608Z,17.50
2023-01-10T19:49:23.894Z,17.50
2023-01-10T19:51:53.606Z,17.50
2023-01-10T19:54:21.493Z,17.50
2023-01-10T19:56:50.683Z,17.50
2023-01-10T19:59:18.519Z,17.50
2023-01-10T20:01:47.492Z,17.50
2023-01-10T20:04:15.643Z,17.50
2023-01-10T20:06:44.042Z,17.50
2023-01-10T20:09:13.106Z,17.50
2023-01-10T20:11:42.865Z,17.50
2023-01-10T20:14:14.336Z,17.50
2023-01-10T20:16:42.665Z,17.50
2023-01-10T20:19:12.005Z,17.50
2023-01-10T20:21:41.190Z,17.50
2023-01-10T20:24:11.542Z,17.50
2023-01-10T20:26:39.717Z,17.50
2023-01-10T20:29:07.598Z,17.50
2023-01-10T20:31:36.945Z,17.50
2023-01-10T20:34:05.043Z,17.50
2023-01-10T20:36:32.951Z,17.50
2023-01-10T20:39:00.854Z,17.50
2023-01-10T20:41:30.750Z,17.50
2023-01-10T20:43:59.319Z,17.50
2023-01-10T20:46:28.975Z,17.50
2023-01-10T20:49:00.138Z,17.60
2023-01-10T20:51:32.490Z,17.60
2023-01-10T20:54:00.787Z,17.60
2023-01-10T20:56:30.920Z,17.50
2023-01-10T20:58:59.470Z,17.50
2023-01-10T21:01:35.179Z,17.50
2023-01-10T21:04:05.749Z,17.50
2023-01-10T21:06:34.125Z,17.60
2023-01-10T21:09:02.021Z,17.50
2023-01-10T21:11:29.861Z,17.60
2023-01-10T21:13:57.751Z,17.50
2023-01-10T21:16:25.805Z,17.60
2023-01-10T21:18:53.776Z,17.50
2023-01-10T21:21:23.535Z,17.50
2023-01-10T21:23:53.745Z,17.50
2023-01-10T21:26:21.610Z,17.50
2023-01-10T21:28:49.564Z,17.50
2023-01-10T21:31:19.765Z,17.50
2023-01-10T21:33:47.920Z,17.50
2023-01-10T21:36:15.784Z,17.50
2023-01-10T21:38:44.956Z,17.50
2023-01-10T21:41:14.704Z,17.50
2023-01-10T21:43:44.253Z,17.50
2023-01-10T21:46:12.852Z,17.50
2023-01-10T21:48:40.693Z,17.50
2023-01-10T21:51:08.520Z,17.50
2023-01-10T21:53:37.034Z,17.50
2023-01-10T21:56:06.761Z,17.50
2023-01-10T21:58:34.626Z,17.50
2023-01-10T22:01:02.443Z,17.60
2023-01-10T22:03:31.231Z,17.50
2023-01-10T22:06:01.638Z,17.50
2023-01-10T22:08:29.500Z,17.50
2023-01-10T22:10:57.360Z,17.50
2023-01-10T22:13:26.984Z,17.50
2023-01-10T22:15:59.101Z,17.60
2023-01-10T22:18:26.979Z,17.50
2023-01-10T22:20:55.571Z,17.50
2023-01-10T22:23:24.185Z,17.50
2023-01-10T22:26:00.021Z,17.50
2023-01-10T22:28:29.457Z,17.50
2023-01-10T22:30:57.702Z,17.50
2023-01-10T22:33:28.893Z,17.50
2023-01-10T22:35:56.790Z,17.50
2023-01-10T22:38:24.645Z,17.50
2023-01-10T22:40:52.457Z,17.50
2023-01-10T22:43:20.280Z,17.50
2023-01-10T22:45:50.239Z,17.50
2023-01-10T22:48:18.169Z,17.50
2023-01-10T22:50:49.552Z,17.50
2023-01-10T22:53:17.382Z,17.50
2023-01-10T22:55:45.195Z,17.50
2023-01-10T22:58:13.041Z,17.50
2023-01-10T23:00:40.845Z,17.50
2023-01-10T23:03:10.800Z,17.50
2023-01-10T23:05:38.659Z,17.50
2023-01-10T23:08:06.777Z,17.50
2023-01-10T23:10:34.631Z,17.60
2023-01-10T23:13:04.035Z,17.50
2023-01-10T23:15:32.020Z,17.50
2023-01-10T23:17:59.879Z,17.50
2023-01-10T23:20:29.043Z,17.50
2023-01-10T23:22:56.849Z,17.50
2023-01-10T23:25:24.679Z,17.50
2023-01-10T23:27:52.575Z,17.50
2023-01-10T23:30:22.317Z,17.50
2023-01-10T23:32:51.127Z,17.50
2023-01-10T23:35:18.953Z,17.50
2023-01-10T23:37:48.163Z,17.50
2023-01-10T23:40:16.414Z,17.50
2023-01-10T23:42:44.274Z,17.60
2023-01-10T23:45:12.657Z,17.50
2023-01-10T23:47:40.811Z,17.50
2023-01-10T23:50:10.045Z,17.50
2023-01-10T23:52:37.878Z,17.50
2023-01-10T23:55:08.045Z,17.50
2023-01-10T23:57:35.862Z,17.50
